Time;durP1;ratioP1;P1;durP2;ratioP2;P2;SDS_P1;SDS_P2;PMS_P1;PMS_P2;Temp;Humidity;BMP_temperature;BMP_pressure;BME280_temperature;BME280_humidity;BME280_pressure;Samples;Min_cycle;Max_cycle;Signal;HPM_P1;HPM_P2
2021/03/22 00:02:59;;;;;;;14.45;9.52;;;3.20;99.90;;;;;;6094441;29;20107;-86
2021/03/22 00:06:01;;;;;;;10.85;9.32;;;;;;;;;;6094440;29;20056;-85
2021/03/22 00:09:02;;;;;;;11.90;9.60;;;;;;;;;;6094869;29;20036;-86
2021/03/22 00:12:03;;;;;;;14.57;9.45;;;3.60;99.90;;;;;;6094318;29;20070;-86
2021/03/22 00:15:07;;;;;;;12.63;9.52;;;3.10;99.90;;;;;;6094599;29;20083;-86
2021/03/22 00:18:11;;;;;;;11.38;9.13;;;3.10;99.90;;;;;;6110024;29;20087;-85
2021/03/22 00:21:13;;;;;;;11.80;8.98;;;2.90;99.90;;;;;;6094000;29;20032;-89
2021/03/22 00:24:14;;;;;;;11.80;9.18;;;;;;;;;;6093469;29;20816;-86
2021/03/22 00:27:15;;;;;;;13.98;9.45;;;;;;;;;;6094684;29;20049;-88
2021/03/22 00:30:19;;;;;;;14.27;9.93;;;3.20;99.90;;;;;;6094049;29;20032;-86
2021/03/22 00:33:20;;;;;;;13.07;9.45;;;3.30;99.90;;;;;;6110006;29;20095;-85
2021/03/22 00:36:21;;;;;;;12.07;9.00;;;3.20;99.90;;;;;;6093512;29;20479;-86
2021/03/22 00:39:22;;;;;;;12.43;8.90;;;;;;;;;;6094092;29;20140;-88
2021/03/22 00:42:23;;;;;;;12.93;9.45;;;;;;;;;;6093722;29;20032;-86
2021/03/22 00:45:24;;;;;;;10.60;7.90;;;;;;;;;;6093564;29;20031;-85
2021/03/22 00:48:29;;;;;;;13.13;8.63;;;2.90;99.90;;;;;;6093668;29;20063;-87
2021/03/22 00:51:30;;;;;;;12.38;9.20;;;2.90;99.90;;;;;;6093599;29;20839;-86
2021/03/22 00:54:31;;;;;;;16.58;9.60;;;;;;;;;;6093711;29;20066;-86
2021/03/22 00:57:31;;;;;;;13.95;9.95;;;2.90;99.90;;;;;;6093845;29;20032;-89
2021/03/22 01:00:43;;;;;;;14.27;9.65;;;2.90;99.90;;;;;;6109230;29;20034;-86
2021/03/22 01:03:44;;;;;;;12.63;9.35;;;;;;;;;;6093217;29;20036;-86
2021/03/22 01:06:45;;;;;;;13.18;9.80;;;;;;;;;;6093132;29;20055;-87
2021/03/22 01:09:46;;;;;;;13.90;10.57;;;2.60;99.90;;;;;;6092389;29;20027;-86
2021/03/22 01:12:46;;;;;;;13.88;9.88;;;2.50;99.90;;;;;;6077767;29;20537;-87
2021/03/22 01:15:48;;;;;;;16.75;11.00;;;;;;;;;;6092863;29;20035;-86
2021/03/22 01:18:50;;;;;;;17.50;10.77;;;;;;;;;;6093413;29;20119;-90
2021/03/22 01:21:55;;;;;;;13.77;9.77;;;2.60;99.90;;;;;;6093288;29;20082;-86
2021/03/22 01:24:56;;;;;;;15.40;9.98;;;2.50;99.90;;;;;;6093174;29;20032;-87
2021/03/22 01:27:57;;;;;;;12.52;10.18;;;;;;;;;;6092631;29;20062;-88
2021/03/22 01:31:00;;;;;;;13.80;10.07;;;;;;;;;;6092402;29;20027;-88
2021/03/22 01:34:00;;;;;;;13.52;10.85;;;2.50;99.90;;;;;;6093253;29;20038;-87
2021/03/22 01:37:01;;;;;;;14.32;10.40;;;;;;;;;;6092501;29;20023;-86
2021/03/22 01:40:04;;;;;;;17.15;11.07;;;2.30;99.90;;;;;;6092848;29;20027;-87
2021/03/22 01:43:11;;;;;;;17.33;11.07;;;2.40;99.90;;;;;;6076968;29;20435;-87
2021/03/22 01:46:12;;;;;;;16.50;10.95;;;;;;;;;;6092244;29;20059;-86
2021/03/22 01:49:13;;;;;;;16.33;10.55;;;2.50;99.90;;;;;;6092079;29;20074;-88
2021/03/22 01:52:14;;;;;;;19.90;10.52;;;;;;;;;;6076591;29;20044;-86
2021/03/22 01:55:15;;;;;;;14.88;11.20;;;2.50;99.90;;;;;;6092207;29;20469;-85
2021/03/22 01:58:16;;;;;;;13.43;9.98;;;;;;;;;;6077019;29;20032;-87
2021/03/22 02:01:17;;;;;;;14.30;9.82;;;2.30;99.90;;;;;;6092325;29;20038;-86
2021/03/22 02:04:19;;;;;;;15.48;10.02;;;2.10;99.90;;;;;;6076447;29;20079;-86
2021/03/22 02:07:19;;;;;;;14.30;10.57;;;2.20;99.90;;;;;;6076573;29;20505;-86
2021/03/22 02:10:20;;;;;;;15.70;10.23;;;;;;;;;;6076618;29;20078;-86
2021/03/22 02:13:26;;;;;;;14.82;10.13;;;1.70;99.90;;;;;;6092065;29;20047;-84
2021/03/22 02:16:47;;;;;;;20.52;11.30;;;1.80;99.90;;;;;;6091544;29;20167;-86
2021/03/22 02:19:59;;;;;;;18.42;13.18;;;1.70;99.90;;;;;;6076686;29;20028;-85
2021/03/22 02:23:10;;;;;;;15.10;10.55;;;;;;;;;;6106738;29;20051;-86
2021/03/22 02:26:48;;;;;;;18.25;9.80;;;1.50;99.90;;;;;;6107068;29;20086;-88
2021/03/22 02:30:26;;;;;;;19.23;11.23;;;1.40;99.90;;;;;;6107327;29;20043;-88
2021/03/22 02:37:26;;;;;;;19.55;10.82;;;1.60;99.90;;;;;;6124334;29;20458;-85
2021/03/22 02:40:33;;;;;;;21.85;11.23;;;1.10;99.90;;;;;;6107332;29;20031;-89
2021/03/22 02:43:34;;;;;;;20.58;11.13;;;1.00;99.90;;;;;;6091048;29;20036;-87
2021/03/22 02:46:36;;;;;;;26.95;10.80;;;;;;;;;;6091586;29;20027;-87
2021/03/22 02:49:37;;;;;;;19.50;11.55;;;1.00;99.90;;;;;;6091166;29;20034;-86
2021/03/22 02:52:59;;;;;;;18.50;11.23;;;1.20;99.90;;;;;;6090944;29;20122;-85
2021/03/22 02:56:17;;;;;;;20.73;11.13;;;0.80;99.90;;;;;;6106069;29;20545;-85
2021/03/22 02:59:22;;;;;;;16.58;10.88;;;0.80;99.90;;;;;;6107509;29;20115;-85
2021/03/22 03:02:23;;;;;;;19.92;11.10;;;;;;;;;;6106206;29;20533;-88
2021/03/22 03:05:24;;;;;;;19.40;11.02;;;;;;;;;;6090853;29;20087;-86
2021/03/22 03:08:36;;;;;;;19.73;10.60;;;0.70;99.90;;;;;;6090801;29;20032;-83
2021/03/22 03:11:37;;;;;;;24.48;13.15;;;;;;;;;;6090248;29;20063;-85
2021/03/22 03:14:38;;;;;;;24.23;12.18;;;;;;;;;;6106021;29;20126;-84
2021/03/22 03:17:39;;;;;;;22.17;10.63;;;;;;;;;;6106373;29;20020;-87
2021/03/22 03:20:40;;;;;;;20.52;11.25;;;;;;;;;;6106245;29;20118;-84
2021/03/22 03:23:41;;;;;;;21.67;10.82;;;;;;;;;;6125388;29;20114;-83
2021/03/22 03:26:42;;;;;;;20.15;10.38;;;;;;;;;;6090913;29;20028;-88
2021/03/22 03:29:43;;;;;;;22.05;11.60;;;;;;;;;;6090222;29;20118;-87
2021/03/22 03:32:44;;;;;;;22.80;11.15;;;;;;;;;;6104236;29;20043;-87
2021/03/22 03:35:45;;;;;;;16.10;10.90;;;;;;;;;;6090209;29;20047;-86
2021/03/22 03:38:46;;;;;;;19.63;10.77;;;;;;;;;;6089982;29;20031;-87
2021/03/22 03:41:47;;;;;;;17.63;11.32;;;;;;;;;;6105564;29;20427;-84
2021/03/22 03:44:48;;;;;;;21.63;10.93;;;0.40;99.90;;;;;;6090082;29;20028;-84
2021/03/22 03:47:49;;;;;;;16.48;11.00;;;;;;;;;;6074113;29;20473;-84
2021/03/22 03:50:51;;;;;;;18.10;11.18;;;0.40;99.90;;;;;;6090437;29;20175;-86
2021/03/22 03:53:51;;;;;;;30.85;12.40;;;0.40;99.90;;;;;;6089736;29;20088;-84
2021/03/22 03:56:52;;;;;;;22.33;10.98;;;;;;;;;;6074557;29;20051;-85
2021/03/22 03:59:53;;;;;;;25.40;11.32;;;;;;;;;;6090010;29;20118;-85
2021/03/22 04:02:54;;;;;;;21.58;11.15;;;0.80;99.90;;;;;;6089437;29;20379;-85
2021/03/22 04:05:56;;;;;;;26.77;12.00;;;0.50;99.90;;;;;;6073693;29;20063;-87
2021/03/22 04:09:07;;;;;;;17.95;11.15;;;0.30;99.90;;;;;;6089229;29;20364;-84
2021/03/22 04:12:08;;;;;;;20.17;11.68;;;;;;;;;;6074648;29;20042;-87
2021/03/22 04:15:09;;;;;;;23.75;12.05;;;;;;;;;;6089955;29;20458;-85
2021/03/22 04:18:11;;;;;;;17.25;10.82;;;;;;;;;;6090658;29;20103;-88
2021/03/22 04:21:15;;;;;;;22.42;11.38;;;0.50;99.90;;;;;;6089966;29;20028;-88
2021/03/22 04:24:16;;;;;;;18.73;10.55;;;;;;;;;;6089957;29;20024;-87
2021/03/22 04:27:17;;;;;;;20.95;12.00;;;;;;;;;;6090080;29;20088;-85
2021/03/22 04:30:18;;;;;;;16.30;11.00;;;;;;;;;;6105712;29;20023;-85
2021/03/22 04:33:19;;;;;;;18.83;11.27;;;;;;;;;;6105575;29;20043;-85
2021/03/22 04:36:25;;;;;;;16.77;10.90;;;0.60;99.90;;;;;;6089354;29;20352;-89
2021/03/22 04:39:26;;;;;;;39.92;22.38;;;;;;;;;;6075027;29;20079;-84
2021/03/22 04:42:27;;;;;;;33.83;16.83;;;;;;;;;;6105773;29;20411;-84
2021/03/22 04:45:28;;;;;;;25.42;13.38;;;0.40;99.90;;;;;;6109586;29;20023;-83
2021/03/22 04:48:29;;;;;;;22.30;12.25;;;;;;;;;;6077799;29;20036;-84
2021/03/22 04:51:31;;;;;;;21.02;10.75;;;;;;;;;;6093881;29;20054;-86
2021/03/22 04:54:32;;;;;;;25.10;10.52;;;;;;;;;;6093645;29;20044;-83
2021/03/22 04:57:33;;;;;;;19.05;10.32;;;;;;;;;;6094082;29;20023;-85
2021/03/22 05:00:38;;;;;;;19.65;11.15;;;0.20;99.90;;;;;;6093813;29;20028;-88
2021/03/22 05:03:39;;;;;;;30.02;11.90;;;;;;;;;;6097679;29;20123;-88
2021/03/22 05:06:39;;;;;;;21.50;11.13;;;0.10;99.90;;;;;;6093652;29;20055;-87
2021/03/22 05:09:40;;;;;;;29.30;12.07;;;0.60;99.90;;;;;;6077832;29;20036;-90
2021/03/22 05:12:41;;;;;;;18.20;10.60;;;;;;;;;;6077883;29;20521;-85
2021/03/22 05:15:42;;;;;;;19.05;11.32;;;;;;;;;;6093380;29;20467;-87
2021/03/22 05:18:44;;;;;;;24.98;13.43;;;0.00;99.90;;;;;;6093514;29;20024;-86
2021/03/22 05:21:45;;;;;;;22.75;14.02;;;;;;;;;;6077817;29;20024;-87
2021/03/22 05:24:46;;;;;;;24.13;12.60;;;;;;;;;;6093554;29;20072;-87
2021/03/22 05:27:46;;;;;;;18.38;11.50;;;0.30;99.90;;;;;;6093319;29;20032;-84
2021/03/22 05:30:47;;;;;;;29.98;14.77;;;0.30;99.90;;;;;;6093118;29;20035;-84
2021/03/22 05:33:48;;;;;;;24.88;14.20;;;;;;;;;;6077481;29;20043;-85
2021/03/22 05:36:49;;;;;;;20.80;13.15;;;;;;;;;;6093012;29;20394;-85
2021/03/22 05:39:50;;;;;;;24.80;12.85;;;0.00;99.90;;;;;;6093037;29;20569;-85
2021/03/22 05:43:17;;;;;;;22.85;11.48;;;0.10;99.90;;;;;;6076860;29;20036;-86
2021/03/22 05:46:23;;;;;;;24.88;14.07;;;0.30;99.90;;;;;;6092719;29;20512;-85
2021/03/22 05:49:33;;;;;;;24.52;12.25;;;0.20;99.90;;;;;;6125838;29;20149;-88
2021/03/22 05:52:52;;;;;;;22.63;11.85;;;0.10;99.90;;;;;;6092575;29;20083;-86
2021/03/22 05:55:54;;;;;;;23.85;12.55;;;0.30;99.90;;;;;;6124162;29;20043;-85
2021/03/22 05:59:36;;;;;;;20.95;11.73;;;0.30;99.90;;;;;;6081782;29;20126;-85
2021/03/22 06:02:40;;;;;;;21.63;13.23;;;0.50;99.90;;;;;;6101811;29;20475;-89
2021/03/22 06:05:43;;;;;;;26.42;12.77;;;;;;;;;;6105686;29;20179;-86
2021/03/22 06:08:45;;;;;;;;;;;0.80;99.90;;;;;;6108959;29;20039;-86
2021/03/22 06:11:46;;;;;;;25.80;14.45;;;;;;;;;;6099850;29;20001;-85
2021/03/22 06:14:57;;;;;;;20.50;11.70;;;1.00;99.90;;;;;;6125353;29;20031;-85
2021/03/22 06:17:59;;;;;;;26.23;13.00;;;;;;;;;;6108852;29;20028;-85
2021/03/22 06:21:09;;;;;;;18.58;11.63;;;1.10;99.90;;;;;;6124296;29;20027;-87
2021/03/22 06:24:20;;;;;;;21.38;12.45;;;1.30;99.90;;;;;;6092082;29;20035;-86
2021/03/22 06:27:21;;;;;;;25.70;13.30;;;;;;;;;;6091782;29;20020;-86
2021/03/22 06:30:23;;;;;;;20.08;12.15;;;1.20;99.90;;;;;;6090813;29;20518;-85
2021/03/22 06:33:28;;;;;;;24.23;12.73;;;1.40;99.90;;;;;;6075655;29;20115;-87
2021/03/22 06:36:29;;;;;;;28.38;13.20;;;;;;;;;;6077963;29;20047;-85
2021/03/22 06:39:30;;;;;;;22.58;11.35;;;;;;;;;;6091352;29;20114;-83
2021/03/22 06:42:31;;;;;;;18.33;11.57;;;1.60;99.90;;;;;;6106908;29;20061;-84
2021/03/22 06:45:40;;;;;;;21.95;11.88;;;1.70;99.90;;;;;;6090766;29;20043;-87
2021/03/22 06:48:41;;;;;;;26.95;11.93;;;;;;;;;;6073844;29;20487;-87
2021/03/22 06:51:42;;;;;;;20.35;11.23;;;;;;;;;;6089388;29;20043;-87
2021/03/22 06:54:46;;;;;;;24.08;11.80;;;1.90;99.90;;;;;;6089302;29;20142;-86
2021/03/22 06:57:50;;;;;;;26.23;11.70;;;2.00;99.90;;;;;;6104784;29;20038;-86
2021/03/22 07:00:57;;;;;;;25.85;13.48;;;;;;;;;;6105268;29;20087;-89
2021/03/22 07:04:38;;;;;;;19.05;11.63;;;2.80;99.90;;;;;;6108231;29;20035;-89
2021/03/22 07:07:52;;;;;;;26.00;12.02;;;3.20;99.90;;;;;;6043926;29;20065;-89
2021/03/22 07:10:54;;;;;;;25.27;10.95;;;;;;;;;;6121039;29;20042;-80
2021/03/22 07:14:01;;;;;;;21.85;11.43;;;3.30;98.90;;;;;;6121844;29;20114;-81
2021/03/22 07:17:16;;;;;;;20.13;12.45;;;3.40;99.90;;;;;;6105385;29;20035;-83
2021/03/22 07:20:18;;;;;;;20.40;10.82;;;3.40;99.90;;;;;;6090293;29;20131;-84
2021/03/22 07:23:22;;;;;;;18.50;9.80;;;3.50;99.90;;;;;;6090046;29;20035;-80
2021/03/22 07:26:43;;;;;;;17.90;10.50;;;3.30;99.90;;;;;;6102540;29;20465;-79
2021/03/22 07:30:07;;;;;;;21.65;10.40;;;3.30;99.90;;;;;;6088482;29;20031;-79
2021/03/22 07:33:32;;;;;;;18.58;10.60;;;3.40;99.90;;;;;;6107876;29;20059;-79
2021/03/22 07:36:53;;;;;;;26.92;15.68;;;3.40;98.60;;;;;;6113220;29;20099;-83
2021/03/22 07:40:09;;;;;;;25.02;13.65;;;3.60;99.90;;;;;;6122781;29;20142;-81
2021/03/22 07:43:32;;;;;;;18.23;11.18;;;3.40;99.90;;;;;;6119615;29;20478;-80
2021/03/22 07:46:44;;;;;;;24.77;13.52;;;3.50;97.90;;;;;;6105286;29;20032;-80
2021/03/22 07:50:07;;;;;;;46.60;22.05;;;3.50;99.90;;;;;;6120097;29;20035;-80
2021/03/22 07:53:08;;;;;;;22.95;12.68;;;;;;;;;;6089761;29;20092;-80
2021/03/22 07:56:19;;;;;;;26.02;12.45;;;3.60;97.80;;;;;;6121329;29;20110;-81
2021/03/22 07:59:30;;;;;;;28.45;13.25;;;3.60;97.70;;;;;;6074573;29;20063;-81
2021/03/22 08:02:55;;;;;;;23.20;12.77;;;3.40;99.90;;;;;;6103335;29;20483;-82
2021/03/22 08:06:02;;;;;;;28.17;13.80;;;3.50;99.90;;;;;;6104610;29;20052;-82
2021/03/22 08:09:03;;;;;;;22.90;12.95;;;3.40;99.90;;;;;;6122143;29;20837;-83
2021/03/22 08:12:43;;;;;;;20.25;11.70;;;3.60;99.90;;;;;;6121260;29;20051;-82
2021/03/22 08:16:02;;;;;;;21.70;9.93;;;3.80;97.90;;;;;;6089146;29;20047;-83
2021/03/22 08:19:26;;;;;;;27.33;12.52;;;3.60;99.90;;;;;;6123667;29;20031;-83
2021/03/22 08:22:48;;;;;;;20.92;11.50;;;3.80;99.90;;;;;;6114092;29;20078;-82
2021/03/22 08:25:50;;;;;;;22.65;10.73;;;3.90;99.90;;;;;;6125728;29;20032;-83
2021/03/22 08:29:25;;;;;;;21.20;11.13;;;4.50;99.90;;;;;;6077515;29;20390;-82
2021/03/22 08:32:56;;;;;;;23.52;10.95;;;4.60;99.30;;;;;;6052803;29;20062;-82
2021/03/22 08:36:04;;;;;;;22.70;11.00;;;4.40;97.80;;;;;;6095148;29;20390;-82
2021/03/22 08:39:42;;;;;;;20.95;11.57;;;5.70;98.90;;;;;;6093382;29;20593;-81
2021/03/22 08:42:49;;;;;;;30.73;12.25;;;4.60;99.90;;;;;;6108267;29;20028;-81
2021/03/22 08:45:59;;;;;;;29.63;12.65;;;5.10;99.90;;;;;;6073378;29;20032;-79
2021/03/22 08:49:00;;;;;;;25.05;10.60;;;4.40;99.90;;;;;;6122790;29;20098;-79
2021/03/22 08:52:02;;;;;;;28.48;10.55;;;4.60;99.90;;;;;;6088821;29;20138;-80
2021/03/22 08:55:16;;;;;;;20.35;9.73;;;4.70;96.80;;;;;;6107596;29;20067;-80
2021/03/22 08:58:19;;;;;;;26.92;10.25;;;4.70;99.90;;;;;;6092091;29;20086;-80
2021/03/22 09:01:37;;;;;;;24.40;10.52;;;5.80;96.80;;;;;;6108334;29;20074;-78
2021/03/22 09:04:37;;;;;;;22.02;9.77;;;5.10;96.90;;;;;;6107920;29;20032;-79
2021/03/22 09:07:38;;;;;;;19.05;8.70;;;4.70;99.90;;;;;;6107728;29;20142;-79
2021/03/22 09:10:40;;;;;;;22.83;9.07;;;4.70;99.90;;;;;;6107360;29;20054;-79
2021/03/22 09:14:09;;;;;;;29.63;9.43;;;4.80;99.90;;;;;;6107818;29;20091;-80
2021/03/22 09:17:48;;;;;;;23.83;9.32;;;5.00;99.90;;;;;;6087564;29;20051;-84
2021/03/22 09:20:48;;;;;;;26.38;11.02;;;5.00;99.90;;;;;;6102071;29;20541;-84
2021/03/22 09:23:49;;;;;;;24.13;10.68;;;;;;;;;;6107366;29;20028;-82
2021/03/22 09:26:50;;;;;;;26.23;10.88;;;;;;;;;;6090037;29;20631;-82
2021/03/22 09:29:52;;;;;;;27.48;9.13;;;4.90;96.20;;;;;;6114632;29;20032;-83
2021/03/22 09:32:53;;;;;;;30.10;9.15;;;;;;;;;;6087552;29;20051;-85
2021/03/22 09:36:04;;;;;;;22.92;9.18;;;5.10;99.90;;;;;;6087393;29;20731;-84
2021/03/22 09:39:14;;;;;;;28.33;9.00;;;4.80;99.90;;;;;;6091162;29;20078;-84
2021/03/22 09:42:22;;;;;;;29.58;9.38;;;4.70;99.90;;;;;;6107554;29;20063;-84
2021/03/22 09:45:23;;;;;;;21.95;8.57;;;;;;;;;;6089089;29;20059;-83
2021/03/22 09:48:33;;;;;;;30.02;9.98;;;5.00;99.90;;;;;;6090072;29;20494;-83
2021/03/22 09:51:34;;;;;;;27.20;8.32;;;;;;;;;;6107827;29;20047;-85
2021/03/22 09:54:38;;;;;;;22.13;7.95;;;5.20;99.90;;;;;;6091299;29;20028;-83
2021/03/22 09:57:40;;;;;;;26.80;7.82;;;5.20;99.90;;;;;;6091116;29;20076;-82
2021/03/22 10:00:41;;;;;;;29.17;9.18;;;5.30;99.90;;;;;;6106528;29;20099;-81
2021/03/22 10:03:46;;;;;;;20.02;7.88;;;5.30;94.10;;;;;;6123624;29;20040;-81
2021/03/22 10:07:04;;;;;;;24.38;8.95;;;5.80;94.70;;;;;;6105807;29;20047;-80
2021/03/22 10:10:22;;;;;;;23.27;7.97;;;5.30;99.90;;;;;;6090745;29;20126;-81
2021/03/22 10:13:34;;;;;;;24.25;7.85;;;5.20;99.90;;;;;;6101563;29;20155;-81
2021/03/22 10:16:37;;;;;;;26.80;8.20;;;5.30;99.90;;;;;;6106428;29;20068;-80
2021/03/22 10:19:38;;;;;;;33.22;9.15;;;5.10;99.90;;;;;;6106503;29;20032;-80
2021/03/22 10:22:38;;;;;;;18.75;7.57;;;5.00;99.90;;;;;;6089998;29;20067;-80
2021/03/22 10:25:39;;;;;;;28.67;9.52;;;5.20;99.90;;;;;;6090195;29;20046;-80
2021/03/22 10:28:41;;;;;;;17.00;7.13;;;;;;;;;;6089900;29;20055;-80
2021/03/22 10:31:42;;;;;;;35.83;8.05;;;4.90;99.90;;;;;;6090232;29;20060;-81
2021/03/22 10:34:53;;;;;;;23.38;7.05;;;5.00;99.90;;;;;;6105646;29;20071;-81
2021/03/22 10:37:55;;;;;;;22.63;7.68;;;5.40;99.90;;;;;;6105936;29;20058;-81
2021/03/22 10:40:56;;;;;;;23.53;7.20;;;;;;;;;;6103329;29;20035;-82
2021/03/22 10:44:14;;;;;;;23.67;6.80;;;5.40;99.90;;;;;;6106387;29;20272;-83
2021/03/22 10:47:17;;;;;;;16.00;6.47;;;5.10;99.50;;;;;;6108082;29;20378;-81
2021/03/22 10:50:30;;;;;;;;;;;5.60;92.20;;;;;;6090745;29;20482;-80
2021/03/22 10:53:32;;;;;;;23.15;7.22;;;;;;;;;;6105302;29;19929;-80
2021/03/22 10:56:49;;;;;;;20.65;6.75;;;5.80;96.90;;;;;;6122054;29;20035;-80
2021/03/22 10:59:51;;;;;;;21.58;6.63;;;;;;;;;;6106125;29;20485;-79
2021/03/22 11:02:52;;;;;;;24.42;7.80;;;5.90;96.30;;;;;;6105301;29;20035;-80
2021/03/22 11:05:54;;;;;;;25.08;8.48;;;6.20;91.30;;;;;;6104491;29;20058;-80
2021/03/22 11:09:00;;;;;;;24.33;7.55;;;6.20;98.70;;;;;;6105680;29;20539;-81
2021/03/22 11:12:01;;;;;;;22.63;7.28;;;6.30;97.80;;;;;;6104764;29;20145;-81
2021/03/22 11:15:04;;;;;;;19.92;7.00;;;6.20;90.30;;;;;;6104334;29;20028;-80
2021/03/22 11:18:17;;;;;;;14.75;6.47;;;6.20;97.50;;;;;;6103360;29;20470;-83
2021/03/22 11:21:22;;;;;;;21.10;6.80;;;6.40;87.60;;;;;;6105108;29;20090;-83
2021/03/22 11:24:39;;;;;;;18.83;6.90;;;7.30;89.40;;;;;;6088605;29;20123;-83
2021/03/22 11:28:12;;;;;;;32.78;7.32;;;6.60;88.90;;;;;;6089696;29;20035;-83
2021/03/22 11:31:13;;;;;;;18.30;6.72;;;;;;;;;;6089434;29;20402;-82
2021/03/22 11:34:33;;;;;;;21.83;7.07;;;6.70;83.10;;;;;;6104621;29;20087;-82
2021/03/22 11:37:34;;;;;;;18.00;6.22;;;6.80;83.60;;;;;;6089049;29;20039;-82
2021/03/22 11:40:37;;;;;;;17.77;6.10;;;6.60;96.90;;;;;;6104385;29;20493;-83
2021/03/22 11:43:40;;;;;;;20.60;6.35;;;6.30;96.70;;;;;;6088342;29;20071;-82
2021/03/22 11:46:41;;;;;;;17.55;7.38;;;6.40;87.20;;;;;;6105051;29;20459;-82
2021/03/22 11:49:43;;;;;;;17.85;6.20;;;6.90;85.90;;;;;;6104457;29;20036;-82
2021/03/22 11:52:44;;;;;;;30.23;7.45;;;6.60;87.70;;;;;;6091205;29;20044;-82
2021/03/22 11:55:48;;;;;;;18.15;6.97;;;6.60;87.10;;;;;;6109253;29;20054;-81
2021/03/22 11:58:49;;;;;;;19.90;6.43;;;6.10;94.70;;;;;;6093956;29;20082;-81
2021/03/22 12:02:00;;;;;;;22.95;6.15;;;6.20;99.90;;;;;;6109298;29;20031;-82
2021/03/22 12:05:05;;;;;;;41.47;17.63;;;6.00;99.90;;;;;;6093486;29;20118;-80
2021/03/22 12:08:32;;;;;;;19.02;6.93;;;5.90;94.70;;;;;;6077937;29;20166;-80
2021/03/22 12:11:32;;;;;;;16.65;6.28;;;6.10;99.90;;;;;;6126279;29;20044;-81
2021/03/22 12:14:33;;;;;;;13.85;5.38;;;;;;;;;;6092640;29;20471;-82
2021/03/22 12:17:36;;;;;;;14.10;5.68;;;6.70;99.90;;;;;;6093959;29;20020;-81
2021/03/22 12:20:36;;;;;;;14.25;5.47;;;6.20;95.10;;;;;;6093358;29;20035;-81
2021/03/22 12:23:37;;;;;;;16.98;5.82;;;;;;;;;;6108261;29;20039;-79
2021/03/22 12:26:38;;;;;;;16.13;5.45;;;6.30;83.50;;;;;;6092578;29;20028;-79
2021/03/22 12:29:39;;;;;;;18.20;6.13;;;6.50;96.30;;;;;;6109065;29;20374;-79
2021/03/22 12:32:40;;;;;;;17.83;5.90;;;6.70;86.10;;;;;;6092663;29;20035;-79
2021/03/22 12:35:40;;;;;;;12.57;5.25;;;6.50;87.30;;;;;;6092944;29;20028;-80
2021/03/22 12:38:41;;;;;;;17.65;6.35;;;6.50;87.30;;;;;;6125983;29;20103;-79
2021/03/22 12:41:42;;;;;;;15.95;5.93;;;7.40;85.10;;;;;;6107851;29;20028;-79
2021/03/22 12:44:42;;;;;;;18.02;5.90;;;6.30;95.10;;;;;;6093318;29;20035;-79
2021/03/22 12:47:43;;;;;;;14.13;5.32;;;7.50;85.00;;;;;;6091575;29;20114;-79
2021/03/22 12:50:44;;;;;;;16.40;5.72;;;6.40;96.30;;;;;;6124470;29;20043;-76
2021/03/22 12:53:45;;;;;;;19.90;6.18;;;6.40;96.20;;;;;;6106571;29;20475;-78
2021/03/22 12:56:46;;;;;;;19.13;6.25;;;6.40;95.60;;;;;;6106328;29;20043;-78
2021/03/22 12:59:46;;;;;;;16.35;5.78;;;6.50;96.00;;;;;;6092293;29;20035;-86
2021/03/22 13:02:47;;;;;;;12.93;5.13;;;6.90;95.50;;;;;;6107689;29;20032;-86
2021/03/22 13:05:49;;;;;;;20.60;6.40;;;;;;;;;;6089873;29;20062;-84
2021/03/22 13:08:49;;;;;;;25.33;6.35;;;6.40;82.90;;;;;;6090686;29;20039;-82
2021/03/22 13:11:50;;;;;;;19.05;5.97;;;7.30;86.90;;;;;;6090186;29;20039;-83
2021/03/22 13:14:51;;;;;;;21.17;7.13;;;;;;;;;;6106481;29;20156;-83
2021/03/22 13:17:52;;;;;;;19.20;6.40;;;6.40;81.90;;;;;;6106170;29;20103;-84
2021/03/22 13:20:58;;;;;;;19.20;5.78;;;6.50;84.80;;;;;;6105446;29;20035;-84
2021/03/22 13:23:59;;;;;;;18.88;7.30;;;6.50;93.70;;;;;;6075050;29;20031;-83
2021/03/22 13:27:00;;;;;;;19.52;6.57;;;;;;;;;;6106843;29;20024;-83
2021/03/22 13:30:00;;;;;;;20.85;6.15;;;6.90;96.40;;;;;;6092411;29;20032;-85
2021/03/22 13:33:02;;;;;;;13.45;6.60;;;6.70;96.30;;;;;;6090995;29;20142;-89
2021/03/22 13:36:24;;;;;;;17.42;6.05;;;6.60;97.50;;;;;;6092244;29;20071;-85
2021/03/22 13:39:27;;;;;;;21.13;6.78;;;;;;;;;;6110902;29;20048;-89
2021/03/22 13:42:27;;;;;;;18.55;5.68;;;8.20;92.40;;;;;;6107515;29;20057;-86
2021/03/22 13:45:28;;;;;;;19.05;6.05;;;8.80;85.10;;;;;;6091925;29;20039;-85
2021/03/22 13:48:29;;;;;;;15.15;6.03;;;7.70;94.50;;;;;;6089636;29;20034;-85
2021/03/22 13:51:32;;;;;;;26.02;11.82;;;7.30;84.60;;;;;;6091641;29;20035;-89
2021/03/22 13:54:32;;;;;;;;;;;7.30;94.00;;;;;;6075413;29;20082;-90
2021/03/22 13:57:34;;;;;;;17.65;6.45;;;;;;;;;;6092991;29;20119;-90
2021/03/22 14:00:35;;;;;;;22.27;5.35;;;;;;;;;;6092455;29;20127;-89
2021/03/22 14:03:36;;;;;;;20.75;5.88;;;;;;;;;;6092694;29;20028;-88
2021/03/22 14:06:37;;;;;;;20.10;8.80;;;;;;;;;;6092429;29;20106;-88
2021/03/22 14:09:38;;;;;;;15.75;5.95;;;6.40;95.50;;;;;;6108673;29;20031;-89
2021/03/22 14:12:39;;;;;;;16.20;5.90;;;;;;;;;;6091468;29;20043;-88
2021/03/22 14:15:42;;;;;;;17.58;6.15;;;6.40;85.30;;;;;;6092409;29;20031;-89
2021/03/22 14:18:46;;;;;;;14.70;5.32;;;;;;;;;;6092529;29;20087;-89
2021/03/22 14:21:47;;;;;;;16.05;6.22;;;;;;;;;;6092093;29;20387;-88
2021/03/22 14:24:48;;;;;;;15.82;5.60;;;6.30;80.40;;;;;;6091750;29;20028;-89
2021/03/22 14:27:49;;;;;;;18.65;6.38;;;;;;;;;;6091875;29;20122;-90
2021/03/22 14:30:50;;;;;;;15.75;5.55;;;;;;;;;;6091714;29;20023;-89
2021/03/22 14:33:54;;;;;;;14.63;5.90;;;6.60;95.50;;;;;;6091497;29;20047;-91
2021/03/22 14:36:56;;;;;;;18.25;6.03;;;;;;;;;;6091702;29;20039;-90
2021/03/22 14:39:57;;;;;;;18.83;6.05;;;;;;;;;;6091279;29;20031;-88
2021/03/22 14:42:58;;;;;;;16.10;6.03;;;6.10;81.60;;;;;;6091710;29;20531;-89
2021/03/22 14:45:59;;;;;;;16.73;6.22;;;;;;;;;;6093352;29;20031;-91
2021/03/22 14:49:00;;;;;;;19.70;5.88;;;;;;;;;;6093678;29;20065;-89
2021/03/22 14:52:01;;;;;;;15.02;5.85;;;6.10;96.00;;;;;;6092173;29;20024;-90
2021/03/22 14:55:02;;;;;;;15.00;5.90;;;;;;;;;;6092966;29;20035;-89
2021/03/22 14:58:03;;;;;;;12.00;5.30;;;6.00;96.90;;;;;;6090443;29;20081;-85
2021/03/22 15:01:04;;;;;;;17.88;5.32;;;;;;;;;;6087259;29;20051;-86
2021/03/22 15:04:05;;;;;;;14.73;5.53;;;5.90;98.20;;;;;;6090091;29;20466;-85
2021/03/22 15:07:06;;;;;;;16.27;5.78;;;5.90;98.20;;;;;;6090150;29;20102;-88
2021/03/22 15:10:08;;;;;;;12.20;5.93;;;;;;;;;;6090069;29;20043;-86
2021/03/22 15:13:09;;;;;;;16.57;7.40;;;;;;;;;;6088965;29;20673;-86
2021/03/22 15:16:10;;;;;;;13.20;5.10;;;;;;;;;;6090060;29;20287;-85
2021/03/22 15:19:11;;;;;;;18.80;5.57;;;;;;;;;;6089694;29;20055;-87
2021/03/22 15:22:12;;;;;;;19.10;6.13;;;;;;;;;;6089683;29;20368;-88
2021/03/22 15:25:15;;;;;;;17.05;5.35;;;6.30;98.00;;;;;;6089646;29;20086;-87
2021/03/22 15:28:24;;;;;;;18.35;5.75;;;6.20;98.20;;;;;;6088716;29;20094;-86
2021/03/22 15:31:24;;;;;;;14.65;5.65;;;5.80;97.70;;;;;;6089155;29;20035;-84
2021/03/22 15:34:25;;;;;;;19.35;6.20;;;;;;;;;;6104798;29;20039;-86
2021/03/22 15:37:26;;;;;;;11.73;5.00;;;6.10;96.50;;;;;;6089630;29;20044;-87
2021/03/22 15:40:27;;;;;;;11.30;5.60;;;;;;;;;;6089096;29;20111;-87
2021/03/22 15:43:28;;;;;;;18.05;6.38;;;6.10;99.90;;;;;;6088480;29;20074;-87
2021/03/22 15:46:29;;;;;;;16.15;5.90;;;;;;;;;;6089287;29;20040;-86
2021/03/22 15:49:30;;;;;;;12.65;5.25;;;;;;;;;;6089393;29;20036;-86
2021/03/22 15:52:32;;;;;;;19.35;6.65;;;;;;;;;;6088506;29;20083;-85
2021/03/22 15:55:33;;;;;;;21.05;9.30;;;;;;;;;;6089394;29;20390;-84
2021/03/22 15:58:34;;;;;;;16.58;7.57;;;;;;;;;;6088515;29;20028;-86
2021/03/22 16:01:35;;;;;;;32.00;14.43;;;;;;;;;;6087345;29;20139;-86
2021/03/22 16:04:36;;;;;;;18.80;7.82;;;;;;;;;;6088591;29;20130;-87
2021/03/22 16:07:38;;;;;;;13.95;6.22;;;;;;;;;;6087394;29;20143;-85
2021/03/22 16:10:39;;;;;;;16.58;6.25;;;;;;;;;;6104334;29;20130;-87
2021/03/22 16:13:40;;;;;;;16.88;6.70;;;;;;;;;;6087956;29;20043;-84
2021/03/22 16:16:41;;;;;;;14.85;6.65;;;;;;;;;;6104964;29;20364;-84
2021/03/22 16:19:42;;;;;;;16.05;6.65;;;;;;;;;;6088202;29;20024;-84
2021/03/22 16:22:43;;;;;;;13.98;6.07;;;;;;;;;;6101946;29;20399;-85
2021/03/22 16:25:44;;;;;;;22.83;6.78;;;5.70;96.40;;;;;;6087699;29;20024;-80
2021/03/22 16:28:46;;;;;;;26.48;6.30;;;5.50;99.00;;;;;;6102477;29;20087;-80
2021/03/22 16:31:47;;;;;;;13.75;5.47;;;5.70;97.30;;;;;;6104613;29;20031;-82
2021/03/22 16:34:48;;;;;;;16.40;5.28;;;;;;;;;;6107080;29;20032;-81
2021/03/22 16:37:50;;;;;;;14.85;6.35;;;5.60;88.20;;;;;;6106183;29;20098;-80
2021/03/22 16:40:56;;;;;;;19.30;6.07;;;5.50;88.00;;;;;;6108260;29;20082;-81
2021/03/22 16:43:56;;;;;;;14.68;5.88;;;5.40;96.80;;;;;;6106420;29;20028;-81
2021/03/22 16:46:57;;;;;;;17.25;6.20;;;5.20;99.30;;;;;;6107869;29;20082;-81